sensor_id;sensor_type;location;lat;lon;timestamp;P1;durP1;ratioP1;P2;durP2;ratioP2
5456;SDS011;2751;49.802;9.944;2022-09-13T00:01:17;9.80;;;8.07;;
5456;SDS011;2751;49.802;9.944;2022-09-13T00:03:44;11.87;;;8.20;;
5456;SDS011;2751;49.802;9.944;2022-09-13T00:06:13;12.30;;;9.00;;
5456;SDS011;2751;49.802;9.944;2022-09-13T00:08:42;9.70;;;8.73;;
5456;SDS011;2751;49.802;9.944;2022-09-13T00:11:13;9.27;;;8.37;;
5456;SDS011;2751;49.802;9.944;2022-09-13T00:13:42;9.57;;;8.03;;
5456;SDS011;2751;49.802;9.944;2022-09-13T00:16:10;13.83;;;8.50;;
5456;SDS011;2751;49.802;9.944;2022-09-13T00:18:37;11.07;;;8.70;;
5456;SDS011;2751;49.802;9.944;2022-09-13T00:21:05;9.77;;;8.77;;
5456;SDS011;2751;49.802;9.944;2022-09-13T00:23:33;14.63;;;9.07;;
5456;SDS011;2751;49.802;9.944;2022-09-13T00:26:06;9.70;;;8.53;;
5456;SDS011;2751;49.802;9.944;2022-09-13T00:28:35;9.77;;;8.70;;
5456;SDS011;2751;49.802;9.944;2022-09-13T00:31:03;10.70;;;9.00;;
5456;SDS011;2751;49.802;9.944;2022-09-13T00:33:32;9.37;;;8.43;;
5456;SDS011;2751;49.802;9.944;2022-09-13T00:36:01;10.00;;;9.00;;
5456;SDS011;2751;49.802;9.944;2022-09-13T00:38:33;13.10;;;8.83;;
5456;SDS011;2751;49.802;9.944;2022-09-13T00:41:01;13.43;;;9.37;;
5456;SDS011;2751;49.802;9.944;2022-09-13T00:43:43;10.93;;;8.97;;
5456;SDS011;2751;49.802;9.944;2022-09-13T00:46:12;14.27;;;8.70;;
5456;SDS011;2751;49.802;9.944;2022-09-13T00:48:44;9.97;;;8.30;;
5456;SDS011;2751;49.802;9.944;2022-09-13T00:51:12;10.07;;;8.40;;
5456;SDS011;2751;49.802;9.944;2022-09-13T00:53:40;10.97;;;8.90;;
5456;SDS011;2751;49.802;9.944;2022-09-13T00:56:10;11.57;;;8.97;;
5456;SDS011;2751;49.802;9.944;2022-09-13T00:58:41;12.43;;;9.70;;
5456;SDS011;2751;49.802;9.944;2022-09-13T01:01:13;21.10;;;9.60;;
5456;SDS011;2751;49.802;9.944;2022-09-13T01:03:42;12.63;;;7.77;;
5456;SDS011;2751;49.802;9.944;2022-09-13T01:06:11;11.33;;;8.33;;
5456;SDS011;2751;49.802;9.944;2022-09-13T01:08:41;10.17;;;8.50;;
5456;SDS011;2751;49.802;9.944;2022-09-13T01:11:14;12.40;;;8.70;;
5456;SDS011;2751;49.802;9.944;2022-09-13T01:13:45;11.70;;;9.10;;
5456;SDS011;2751;49.802;9.944;2022-09-13T01:16:15;10.83;;;9.13;;
5456;SDS011;2751;49.802;9.944;2022-09-13T01:18:42;14.60;;;9.00;;
5456;SDS011;2751;49.802;9.944;2022-09-13T01:24:19;9.80;;;8.80;;
5456;SDS011;2751;49.802;9.944;2022-09-13T01:27:22;11.07;;;8.40;;
5456;SDS011;2751;49.802;9.944;2022-09-13T01:30:10;11.83;;;9.40;;
5456;SDS011;2751;49.802;9.944;2022-09-13T01:32:48;11.93;;;9.77;;
5456;SDS011;2751;49.802;9.944;2022-09-13T01:35:42;10.23;;;8.90;;
5456;SDS011;2751;49.802;9.944;2022-09-13T01:38:21;10.47;;;9.37;;
5456;SDS011;2751;49.802;9.944;2022-09-13T01:41:01;9.60;;;8.40;;
5456;SDS011;2751;49.802;9.944;2022-09-13T01:43:39;11.10;;;8.70;;
5456;SDS011;2751;49.802;9.944;2022-09-13T01:46:16;12.87;;;9.20;;
5456;SDS011;2751;49.802;9.944;2022-09-13T01:48:51;13.53;;;8.67;;
5456;SDS011;2751;49.802;9.944;2022-09-13T01:51:25;10.27;;;9.13;;
5456;SDS011;2751;49.802;9.944;2022-09-13T01:53:57;9.80;;;8.60;;
5456;SDS011;2751;49.802;9.944;2022-09-13T01:56:35;9.30;;;8.30;;
5456;SDS011;2751;49.802;9.944;2022-09-13T01:59:09;12.57;;;9.03;;
5456;SDS011;2751;49.802;9.944;2022-09-13T02:01:43;11.90;;;9.40;;
5456;SDS011;2751;49.802;9.944;2022-09-13T02:04:16;12.27;;;9.00;;
5456;SDS011;2751;49.802;9.944;2022-09-13T02:06:47;11.50;;;8.63;;
5456;SDS011;2751;49.802;9.944;2022-09-13T02:09:19;9.00;;;8.10;;
5456;SDS011;2751;49.802;9.944;2022-09-13T02:11:50;11.60;;;8.13;;
5456;SDS011;2751;49.802;9.944;2022-09-13T02:14:25;10.43;;;8.23;;
5456;SDS011;2751;49.802;9.944;2022-09-13T02:17:00;11.30;;;8.73;;
5456;SDS011;2751;49.802;9.944;2022-09-13T02:19:30;9.13;;;8.00;;
5456;SDS011;2751;49.802;9.944;2022-09-13T02:22:00;8.83;;;7.63;;
5456;SDS011;2751;49.802;9.944;2022-09-13T02:24:31;9.20;;;8.30;;
5456;SDS011;2751;49.802;9.944;2022-09-13T02:27:01;10.50;;;9.00;;
5456;SDS011;2751;49.802;9.944;2022-09-13T02:29:32;14.97;;;9.33;;
5456;SDS011;2751;49.802;9.944;2022-09-13T02:32:05;11.80;;;9.50;;
5456;SDS011;2751;49.802;9.944;2022-09-13T02:34:37;11.43;;;8.47;;
5456;SDS011;2751;49.802;9.944;2022-09-13T02:37:08;10.57;;;8.17;;
5456;SDS011;2751;49.802;9.944;2022-09-13T02:39:43;12.43;;;8.20;;
5456;SDS011;2751;49.802;9.944;2022-09-13T02:42:14;11.33;;;8.93;;
5456;SDS011;2751;49.802;9.944;2022-09-13T02:44:44;10.73;;;8.90;;
5456;SDS011;2751;49.802;9.944;2022-09-13T02:47:19;9.50;;;8.27;;
5456;SDS011;2751;49.802;9.944;2022-09-13T02:50:08;10.73;;;8.87;;
5456;SDS011;2751;49.802;9.944;2022-09-13T02:52:47;13.03;;;9.20;;
5456;SDS011;2751;49.802;9.944;2022-09-13T02:55:20;9.50;;;8.50;;
5456;SDS011;2751;49.802;9.944;2022-09-13T02:57:54;11.03;;;8.43;;
5456;SDS011;2751;49.802;9.944;2022-09-13T03:00:27;12.70;;;8.57;;
5456;SDS011;2751;49.802;9.944;2022-09-13T03:02:57;11.90;;;9.60;;
5456;SDS011;2751;49.802;9.944;2022-09-13T03:05:27;10.70;;;8.30;;
5456;SDS011;2751;49.802;9.944;2022-09-13T03:07:54;12.73;;;9.30;;
5456;SDS011;2751;49.802;9.944;2022-09-13T03:10:22;13.40;;;9.23;;
5456;SDS011;2751;49.802;9.944;2022-09-13T03:13:00;11.87;;;9.20;;
5456;SDS011;2751;49.802;9.944;2022-09-13T03:15:58;11.47;;;9.60;;
5456;SDS011;2751;49.802;9.944;2022-09-13T03:18:47;10.07;;;9.07;;
5456;SDS011;2751;49.802;9.944;2022-09-13T03:21:35;14.43;;;10.20;;
5456;SDS011;2751;49.802;9.944;2022-09-13T03:24:16;12.70;;;8.90;;
5456;SDS011;2751;49.802;9.944;2022-09-13T03:26:51;9.80;;;8.80;;
5456;SDS011;2751;49.802;9.944;2022-09-13T03:29:30;10.30;;;9.13;;
5456;SDS011;2751;49.802;9.944;2022-09-13T03:32:08;9.60;;;8.27;;
5456;SDS011;2751;49.802;9.944;2022-09-13T03:34:47;11.30;;;8.93;;
5456;SDS011;2751;49.802;9.944;2022-09-13T03:37:22;10.20;;;9.20;;
5456;SDS011;2751;49.802;9.944;2022-09-13T03:39:53;10.10;;;8.77;;
5456;SDS011;2751;49.802;9.944;2022-09-13T03:42:27;11.27;;;10.07;;
5456;SDS011;2751;49.802;9.944;2022-09-13T03:45:03;14.47;;;10.43;;
5456;SDS011;2751;49.802;9.944;2022-09-13T03:47:33;10.90;;;9.33;;
5456;SDS011;2751;49.802;9.944;2022-09-13T03:50:04;11.93;;;9.63;;
5456;SDS011;2751;49.802;9.944;2022-09-13T03:52:34;11.80;;;9.90;;
5456;SDS011;2751;49.802;9.944;2022-09-13T03:55:01;13.70;;;10.00;;
5456;SDS011;2751;49.802;9.944;2022-09-13T03:57:28;10.87;;;9.23;;
5456;SDS011;2751;49.802;9.944;2022-09-13T03:59:55;12.53;;;9.13;;
5456;SDS011;2751;49.802;9.944;2022-09-13T04:02:23;11.60;;;9.50;;
5456;SDS011;2751;49.802;9.944;2022-09-13T04:04:51;11.20;;;9.80;;
5456;SDS011;2751;49.802;9.944;2022-09-13T04:07:21;12.97;;;9.97;;
5456;SDS011;2751;49.802;9.944;2022-09-13T04:09:49;11.13;;;9.57;;
5456;SDS011;2751;49.802;9.944;2022-09-13T04:12:16;11.00;;;9.67;;
5456;SDS011;2751;49.802;9.944;2022-09-13T04:14:43;13.00;;;9.37;;
5456;SDS011;2751;49.802;9.944;2022-09-13T04:17:11;14.53;;;10.10;;
5456;SDS011;2751;49.802;9.944;2022-09-13T04:19:38;13.33;;;9.83;;
5456;SDS011;2751;49.802;9.944;2022-09-13T04:22:05;13.60;;;9.13;;
5456;SDS011;2751;49.802;9.944;2022-09-13T04:24:33;10.50;;;9.27;;
5456;SDS011;2751;49.802;9.944;2022-09-13T04:27:01;10.80;;;9.43;;
5456;SDS011;2751;49.802;9.944;2022-09-13T04:29:29;11.13;;;9.93;;
5456;SDS011;2751;49.802;9.944;2022-09-13T04:31:57;16.40;;;9.23;;
5456;SDS011;2751;49.802;9.944;2022-09-13T04:34:24;12.10;;;9.90;;
5456;SDS011;2751;49.802;9.944;2022-09-13T04:36:52;11.40;;;8.90;;
5456;SDS011;2751;49.802;9.944;2022-09-13T04:39:19;12.43;;;9.90;;
5456;SDS011;2751;49.802;9.944;2022-09-13T04:41:49;13.10;;;10.00;;
5456;SDS011;2751;49.802;9.944;2022-09-13T04:44:18;15.00;;;9.83;;
5456;SDS011;2751;49.802;9.944;2022-09-13T04:46:46;13.00;;;9.80;;
5456;SDS011;2751;49.802;9.944;2022-09-13T04:49:13;15.53;;;9.67;;
5456;SDS011;2751;49.802;9.944;2022-09-13T04:51:41;11.33;;;9.80;;
5456;SDS011;2751;49.802;9.944;2022-09-13T04:54:08;11.70;;;8.93;;
5456;SDS011;2751;49.802;9.944;2022-09-13T04:56:36;10.70;;;9.20;;
5456;SDS011;2751;49.802;9.944;2022-09-13T04:59:05;11.30;;;9.80;;
5456;SDS011;2751;49.802;9.944;2022-09-13T05:01:32;10.90;;;8.87;;
5456;SDS011;2751;49.802;9.944;2022-09-13T05:03:59;11.63;;;9.73;;
5456;SDS011;2751;49.802;9.944;2022-09-13T05:06:26;10.60;;;8.97;;
5456;SDS011;2751;49.802;9.944;2022-09-13T05:08:54;14.10;;;8.33;;
5456;SDS011;2751;49.802;9.944;2022-09-13T05:11:21;12.97;;;9.23;;
5456;SDS011;2751;49.802;9.944;2022-09-13T05:13:49;12.47;;;9.93;;
5456;SDS011;2751;49.802;9.944;2022-09-13T05:16:20;12.90;;;10.70;;
5456;SDS011;2751;49.802;9.944;2022-09-13T05:18:48;10.33;;;9.23;;
5456;SDS011;2751;49.802;9.944;2022-09-13T05:21:16;10.67;;;9.40;;
5456;SDS011;2751;49.802;9.944;2022-09-13T05:23:43;11.97;;;10.20;;
5456;SDS011;2751;49.802;9.944;2022-09-13T05:26:10;13.63;;;9.33;;
5456;SDS011;2751;49.802;9.944;2022-09-13T05:28:37;10.60;;;9.50;;
5456;SDS011;2751;49.802;9.944;2022-09-13T05:31:05;11.07;;;9.77;;
5456;SDS011;2751;49.802;9.944;2022-09-13T05:33:35;12.67;;;10.17;;
5456;SDS011;2751;49.802;9.944;2022-09-13T05:36:03;14.90;;;10.93;;
5456;SDS011;2751;49.802;9.944;2022-09-13T05:38:31;15.20;;;10.50;;
5456;SDS011;2751;49.802;9.944;2022-09-13T05:40:59;17.20;;;11.23;;
5456;SDS011;2751;49.802;9.944;2022-09-13T05:43:28;14.73;;;11.00;;
5456;SDS011;2751;49.802;9.944;2022-09-13T05:45:59;10.97;;;9.77;;
5456;SDS011;2751;49.802;9.944;2022-09-13T05:48:26;13.33;;;10.60;;
5456;SDS011;2751;49.802;9.944;2022-09-13T05:50:55;13.70;;;11.47;;
5456;SDS011;2751;49.802;9.944;2022-09-13T05:53:22;12.10;;;10.30;;
5456;SDS011;2751;49.802;9.944;2022-09-13T05:55:49;14.00;;;10.10;;
5456;SDS011;2751;49.802;9.944;2022-09-13T05:58:16;14.23;;;10.30;;
5456;SDS011;2751;49.802;9.944;2022-09-13T06:00:42;12.97;;;9.57;;
5456;SDS011;2751;49.802;9.944;2022-09-13T06:03:09;14.40;;;9.77;;
5456;SDS011;2751;49.802;9.944;2022-09-13T06:05:36;10.13;;;8.90;;
5456;SDS011;2751;49.802;9.944;2022-09-13T06:08:04;12.83;;;10.37;;
5456;SDS011;2751;49.802;9.944;2022-09-13T06:10:32;13.40;;;10.30;;
5456;SDS011;2751;49.802;9.944;2022-09-13T06:12:59;12.70;;;11.30;;
5456;SDS011;2751;49.802;9.944;2022-09-13T06:15:26;15.27;;;10.37;;
5456;SDS011;2751;49.802;9.944;2022-09-13T06:17:52;14.13;;;10.60;;
5456;SDS011;2751;49.802;9.944;2022-09-13T06:20:19;11.83;;;10.10;;
5456;SDS011;2751;49.802;9.944;2022-09-13T06:22:46;15.30;;;10.60;;
5456;SDS011;2751;49.802;9.944;2022-09-13T06:25:15;12.50;;;10.37;;
5456;SDS011;2751;49.802;9.944;2022-09-13T06:27:42;14.23;;;11.67;;
5456;SDS011;2751;49.802;9.944;2022-09-13T06:30:09;19.13;;;14.90;;
5456;SDS011;2751;49.802;9.944;2022-09-13T06:32:37;14.77;;;12.10;;
5456;SDS011;2751;49.802;9.944;2022-09-13T06:35:04;14.43;;;12.10;;
5456;SDS011;2751;49.802;9.944;2022-09-13T06:37:32;14.37;;;12.10;;
5456;SDS011;2751;49.802;9.944;2022-09-13T06:39:59;14.67;;;11.27;;
5456;SDS011;2751;49.802;9.944;2022-09-13T06:42:27;16.40;;;11.27;;
5456;SDS011;2751;49.802;9.944;2022-09-13T06:44:54;14.63;;;11.40;;
5456;SDS011;2751;49.802;9.944;2022-09-13T06:47:21;12.83;;;11.30;;
5456;SDS011;2751;49.802;9.944;2022-09-13T06:49:48;16.07;;;11.57;;
5456;SDS011;2751;49.802;9.944;2022-09-13T06:52:15;14.93;;;11.07;;
5456;SDS011;2751;49.802;9.944;2022-09-13T06:54:41;13.40;;;12.00;;
5456;SDS011;2751;49.802;9.944;2022-09-13T06:57:08;16.13;;;12.63;;
5456;SDS011;2751;49.802;9.944;2022-09-13T06:59:37;15.37;;;12.13;;
5456;SDS011;2751;49.802;9.944;2022-09-13T07:02:03;19.00;;;13.30;;
5456;SDS011;2751;49.802;9.944;2022-09-13T07:04:30;14.27;;;12.10;;
5456;SDS011;2751;49.802;9.944;2022-09-13T07:06:57;19.17;;;11.57;;
5456;SDS011;2751;49.802;9.944;2022-09-13T07:09:25;16.63;;;11.90;;
5456;SDS011;2751;49.802;9.944;2022-09-13T07:11:52;14.13;;;12.30;;
5456;SDS011;2751;49.802;9.944;2022-09-13T07:14:21;16.23;;;12.97;;
5456;SDS011;2751;49.802;9.944;2022-09-13T07:16:51;21.63;;;13.80;;
5456;SDS011;2751;49.802;9.944;2022-09-13T07:19:19;16.03;;;12.13;;
5456;SDS011;2751;49.802;9.944;2022-09-13T07:21:47;20.63;;;12.93;;
5456;SDS011;2751;49.802;9.944;2022-09-13T07:24:14;14.97;;;12.70;;
5456;SDS011;2751;49.802;9.944;2022-09-13T07:26:42;14.83;;;11.63;;
5456;SDS011;2751;49.802;9.944;2022-09-13T07:29:11;15.30;;;12.50;;
5456;SDS011;2751;49.802;9.944;2022-09-13T07:31:41;13.97;;;12.37;;
5456;SDS011;2751;49.802;9.944;2022-09-13T07:34:12;18.03;;;14.70;;
5456;SDS011;2751;49.802;9.944;2022-09-13T07:36:40;17.70;;;12.10;;
5456;SDS011;2751;49.802;9.944;2022-09-13T07:39:08;13.70;;;12.20;;
5456;SDS011;2751;49.802;9.944;2022-09-13T07:41:36;15.17;;;12.90;;
5456;SDS011;2751;49.802;9.944;2022-09-13T07:44:03;17.17;;;12.90;;
5456;SDS011;2751;49.802;9.944;2022-09-13T07:46:32;16.43;;;12.67;;
5456;SDS011;2751;49.802;9.944;2022-09-13T07:49:02;15.87;;;12.60;;
5456;SDS011;2751;49.802;9.944;2022-09-13T07:51:31;16.30;;;12.50;;
5456;SDS011;2751;49.802;9.944;2022-09-13T07:53:59;15.13;;;11.77;;
5456;SDS011;2751;49.802;9.944;2022-09-13T07:56:28;15.77;;;11.63;;
5456;SDS011;2751;49.802;9.944;2022-09-13T07:58:57;15.67;;;11.53;;
5456;SDS011;2751;49.802;9.944;2022-09-13T08:01:25;17.73;;;12.20;;
5456;SDS011;2751;49.802;9.944;2022-09-13T08:03:53;19.10;;;11.83;;
5456;SDS011;2751;49.802;9.944;2022-09-13T08:06:22;15.17;;;12.73;;
5456;SDS011;2751;49.802;9.944;2022-09-13T08:08:52;12.87;;;11.57;;
5456;SDS011;2751;49.802;9.944;2022-09-13T08:11:19;16.73;;;12.70;;
5456;SDS011;2751;49.802;9.944;2022-09-13T08:13:48;17.43;;;12.70;;
5456;SDS011;2751;49.802;9.944;2022-09-13T08:16:16;12.87;;;11.40;;
5456;SDS011;2751;49.802;9.944;2022-09-13T08:18:44;12.70;;;11.40;;
5456;SDS011;2751;49.802;9.944;2022-09-13T08:21:11;15.53;;;11.20;;
5456;SDS011;2751;49.802;9.944;2022-09-13T08:23:39;15.40;;;11.93;;
5456;SDS011;2751;49.802;9.944;2022-09-13T08:26:08;14.10;;;12.37;;
5456;SDS011;2751;49.802;9.944;2022-09-13T08:28:35;12.30;;;10.33;;
5456;SDS011;2751;49.802;9.944;2022-09-13T08:31:04;12.60;;;11.30;;
5456;SDS011;2751;49.802;9.944;2022-09-13T08:33:32;12.70;;;10.90;;
5456;SDS011;2751;49.802;9.944;2022-09-13T08:36:00;13.27;;;11.27;;
5456;SDS011;2751;49.802;9.944;2022-09-13T08:38:28;16.63;;;11.60;;
5456;SDS011;2751;49.802;9.944;2022-09-13T08:40:55;16.87;;;10.80;;
5456;SDS011;2751;49.802;9.944;2022-09-13T08:43:29;13.13;;;10.27;;
5456;SDS011;2751;49.802;9.944;2022-09-13T08:46:05;12.67;;;10.47;;
5456;SDS011;2751;49.802;9.944;2022-09-13T08:48:39;10.90;;;9.80;;
5456;SDS011;2751;49.802;9.944;2022-09-13T08:51:13;12.00;;;10.40;;
5456;SDS011;2751;49.802;9.944;2022-09-13T08:53:52;10.90;;;9.80;;
5456;SDS011;2751;49.802;9.944;2022-09-13T08:56:21;12.30;;;9.73;;
5456;SDS011;2751;49.802;9.944;2022-09-13T08:58:59;12.40;;;9.93;;
5456;SDS011;2751;49.802;9.944;2022-09-13T09:01:42;10.40;;;9.40;;
5456;SDS011;2751;49.802;9.944;2022-09-13T09:04:28;11.40;;;9.80;;
5456;SDS011;2751;49.802;9.944;2022-09-13T09:07:03;12.87;;;10.63;;
5456;SDS011;2751;49.802;9.944;2022-09-13T09:09:36;10.67;;;9.53;;
5456;SDS011;2751;49.802;9.944;2022-09-13T09:12:12;12.57;;;10.87;;
5456;SDS011;2751;49.802;9.944;2022-09-13T09:14:44;12.80;;;11.50;;
5456;SDS011;2751;49.802;9.944;2022-09-13T09:17:17;13.23;;;11.80;;
5456;SDS011;2751;49.802;9.944;2022-09-13T09:19:51;15.67;;;13.40;;
5456;SDS011;2751;49.802;9.944;2022-09-13T09:22:24;13.90;;;10.70;;
5456;SDS011;2751;49.802;9.944;2022-09-13T09:24:58;15.27;;;10.27;;
5456;SDS011;2751;49.802;9.944;2022-09-13T09:27:25;10.90;;;9.90;;
5456;SDS011;2751;49.802;9.944;2022-09-13T09:29:56;13.27;;;9.77;;
5456;SDS011;2751;49.802;9.944;2022-09-13T09:35:27;11.57;;;10.10;;
5456;SDS011;2751;49.802;9.944;2022-09-13T09:38:11;12.30;;;9.50;;
5456;SDS011;2751;49.802;9.944;2022-09-13T09:40:49;13.67;;;9.30;;
5456;SDS011;2751;49.802;9.944;2022-09-13T09:43:16;9.50;;;8.60;;
5456;SDS011;2751;49.802;9.944;2022-09-13T09:45:50;13.03;;;9.17;;
5456;SDS011;2751;49.802;9.944;2022-09-13T09:48:21;9.87;;;8.43;;
5456;SDS011;2751;49.802;9.944;2022-09-13T09:50:54;8.67;;;7.87;;
5456;SDS011;2751;49.802;9.944;2022-09-13T09:53:24;8.97;;;7.87;;
5456;SDS011;2751;49.802;9.944;2022-09-13T09:55:57;8.70;;;7.83;;
5456;SDS011;2751;49.802;9.944;2022-09-13T09:58:35;7.47;;;6.77;;
5456;SDS011;2751;49.802;9.944;2022-09-13T10:01:05;15.53;;;11.97;;
5456;SDS011;2751;49.802;9.944;2022-09-13T10:03:42;8.17;;;7.47;;
5456;SDS011;2751;49.802;9.944;2022-09-13T10:06:17;8.00;;;7.20;;
5456;SDS011;2751;49.802;9.944;2022-09-13T10:08:47;8.20;;;6.40;;
5456;SDS011;2751;49.802;9.944;2022-09-13T10:11:27;7.90;;;7.10;;
5456;SDS011;2751;49.802;9.944;2022-09-13T10:14:21;9.60;;;8.70;;
5456;SDS011;2751;49.802;9.944;2022-09-13T10:17:02;8.87;;;7.23;;
5456;SDS011;2751;49.802;9.944;2022-09-13T10:19:31;7.93;;;6.50;;
5456;SDS011;2751;49.802;9.944;2022-09-13T10:21:58;7.77;;;6.60;;
5456;SDS011;2751;49.802;9.944;2022-09-13T10:24:26;7.30;;;6.60;;
5456;SDS011;2751;49.802;9.944;2022-09-13T10:26:54;6.40;;;5.90;;
5456;SDS011;2751;49.802;9.944;2022-09-13T10:29:21;7.97;;;5.90;;
5456;SDS011;2751;49.802;9.944;2022-09-13T10:31:51;7.33;;;6.70;;
5456;SDS011;2751;49.802;9.944;2022-09-13T10:34:23;5.90;;;5.40;;
5456;SDS011;2751;49.802;9.944;2022-09-13T10:36:54;6.27;;;5.77;;
5456;SDS011;2751;49.802;9.944;2022-09-13T10:39:23;7.30;;;6.70;;
5456;SDS011;2751;49.802;9.944;2022-09-13T10:41:53;6.90;;;6.07;;
5456;SDS011;2751;49.802;9.944;2022-09-13T10:44:26;7.00;;;5.80;;
5456;SDS011;2751;49.802;9.944;2022-09-13T10:46:56;7.33;;;6.27;;
5456;SDS011;2751;49.802;9.944;2022-09-13T10:49:38;8.00;;;6.80;;
5456;SDS011;2751;49.802;9.944;2022-09-13T10:57:52;7.00;;;5.80;;
5456;SDS011;2751;49.802;9.944;2022-09-13T11:00:20;7.43;;;5.90;;
5456;SDS011;2751;49.802;9.944;2022-09-13T11:02:54;9.13;;;7.07;;
5456;SDS011;2751;49.802;9.944;2022-09-13T11:05:38;8.07;;;7.33;;
5456;SDS011;2751;49.802;9.944;2022-09-13T11:08:15;6.87;;;6.17;;
5456;SDS011;2751;49.802;9.944;2022-09-13T11:10:55;6.33;;;5.73;;
5456;SDS011;2751;49.802;9.944;2022-09-13T11:13:33;7.23;;;6.50;;
5456;SDS011;2751;49.802;9.944;2022-09-13T11:16:09;10.33;;;6.87;;
5456;SDS011;2751;49.802;9.944;2022-09-13T11:18:54;7.87;;;7.13;;
5456;SDS011;2751;49.802;9.944;2022-09-13T11:21:42;8.63;;;7.00;;
5456;SDS011;2751;49.802;9.944;2022-09-13T11:24:28;9.07;;;8.10;;
5456;SDS011;2751;49.802;9.944;2022-09-13T11:27:14;14.80;;;12.40;;
5456;SDS011;2751;49.802;9.944;2022-09-13T11:29:56;12.63;;;7.40;;
5456;SDS011;2751;49.802;9.944;2022-09-13T11:32:44;8.77;;;7.87;;
5456;SDS011;2751;49.802;9.944;2022-09-13T11:38:23;9.03;;;7.37;;
5456;SDS011;2751;49.802;9.944;2022-09-13T11:40:59;8.73;;;7.93;;
5456;SDS011;2751;49.802;9.944;2022-09-13T11:43:40;9.67;;;7.90;;
5456;SDS011;2751;49.802;9.944;2022-09-13T11:46:29;9.43;;;8.53;;
5456;SDS011;2751;49.802;9.944;2022-09-13T11:49:18;10.03;;;9.03;;
5456;SDS011;2751;49.802;9.944;2022-09-13T11:52:06;10.23;;;8.60;;
5456;SDS011;2751;49.802;9.944;2022-09-13T11:54:44;10.13;;;8.57;;
5456;SDS011;2751;49.802;9.944;2022-09-13T11:57:26;10.97;;;8.43;;
5456;SDS011;2751;49.802;9.944;2022-09-13T11:59:58;11.00;;;9.00;;
5456;SDS011;2751;49.802;9.944;2022-09-13T12:02:28;10.30;;;9.10;;
5456;SDS011;2751;49.802;9.944;2022-09-13T12:05:04;10.13;;;9.10;;
5456;SDS011;2751;49.802;9.944;2022-09-13T12:07:36;10.90;;;8.90;;
5456;SDS011;2751;49.802;9.944;2022-09-13T12:10:12;9.13;;;8.10;;
5456;SDS011;2751;49.802;9.944;2022-09-13T12:12:42;8.80;;;7.80;;
5456;SDS011;2751;49.802;9.944;2022-09-13T12:15:14;13.57;;;8.33;;
5456;SDS011;2751;49.802;9.944;2022-09-13T12:17:46;9.80;;;8.27;;
5456;SDS011;2751;49.802;9.944;2022-09-13T12:20:17;12.20;;;7.73;;
5456;SDS011;2751;49.802;9.944;2022-09-13T12:22:53;9.27;;;7.60;;
5456;SDS011;2751;49.802;9.944;2022-09-13T12:25:23;9.33;;;8.33;;
5456;SDS011;2751;49.802;9.944;2022-09-13T12:27:56;8.67;;;7.77;;
5456;SDS011;2751;49.802;9.944;2022-09-13T12:30:32;9.57;;;7.50;;
5456;SDS011;2751;49.802;9.944;2022-09-13T12:33:07;8.77;;;7.33;;
5456;SDS011;2751;49.802;9.944;2022-09-13T12:35:41;7.57;;;6.87;;
5456;SDS011;2751;49.802;9.944;2022-09-13T12:38:18;10.27;;;7.70;;
5456;SDS011;2751;49.802;9.944;2022-09-13T12:47:07;7.13;;;6.40;;
5456;SDS011;2751;49.802;9.944;2022-09-13T12:49:49;8.00;;;7.20;;
5456;SDS011;2751;49.802;9.944;2022-09-13T12:52:29;14.17;;;7.30;;
5456;SDS011;2751;49.802;9.944;2022-09-13T12:58:07;5.10;;;4.80;;
5456;SDS011;2751;49.802;9.944;2022-09-13T13:01:00;5.60;;;5.07;;
5456;SDS011;2751;49.802;9.944;2022-09-13T13:03:41;4.57;;;4.10;;
5456;SDS011;2751;49.802;9.944;2022-09-13T13:06:22;4.00;;;3.70;;
5456;SDS011;2751;49.802;9.944;2022-09-13T13:08:57;5.23;;;4.83;;
5456;SDS011;2751;49.802;9.944;2022-09-13T13:11:27;8.40;;;4.70;;
5456;SDS011;2751;49.802;9.944;2022-09-13T13:14:10;4.70;;;3.87;;
5456;SDS011;2751;49.802;9.944;2022-09-13T13:19:55;4.43;;;3.30;;
5456;SDS011;2751;49.802;9.944;2022-09-13T13:25:32;4.07;;;3.67;;
5456;SDS011;2751;49.802;9.944;2022-09-13T13:28:02;4.27;;;3.43;;
5456;SDS011;2751;49.802;9.944;2022-09-13T13:30:50;4.03;;;3.30;;
5456;SDS011;2751;49.802;9.944;2022-09-13T13:33:22;3.33;;;3.07;;
5456;SDS011;2751;49.802;9.944;2022-09-13T13:35:52;3.83;;;3.53;;
5456;SDS011;2751;49.802;9.944;2022-09-13T13:38:35;3.70;;;3.40;;
5456;SDS011;2751;49.802;9.944;2022-09-13T13:50:18;4.70;;;3.77;;
5456;SDS011;2751;49.802;9.944;2022-09-13T13:52:52;3.70;;;3.40;;
5456;SDS011;2751;49.802;9.944;2022-09-13T13:55:29;5.87;;;5.37;;
5456;SDS011;2751;49.802;9.944;2022-09-13T13:58:07;3.90;;;3.50;;
5456;SDS011;2751;49.802;9.944;2022-09-13T14:00:50;6.67;;;6.00;;
5456;SDS011;2751;49.802;9.944;2022-09-13T14:03:22;3.70;;;3.50;;
5456;SDS011;2751;49.802;9.944;2022-09-13T14:05:54;3.90;;;3.10;;
5456;SDS011;2751;49.802;9.944;2022-09-13T14:08:33;3.47;;;3.10;;
5456;SDS011;2751;49.802;9.944;2022-09-13T14:11:11;3.20;;;3.00;;
5456;SDS011;2751;49.802;9.944;2022-09-13T14:13:51;3.43;;;3.23;;
5456;SDS011;2751;49.802;9.944;2022-09-13T14:16:33;3.30;;;3.10;;
5456;SDS011;2751;49.802;9.944;2022-09-13T14:19:19;3.57;;;3.27;;
5456;SDS011;2751;49.802;9.944;2022-09-13T14:24:35;3.20;;;3.00;;
5456;SDS011;2751;49.802;9.944;2022-09-13T14:27:03;3.00;;;2.90;;
5456;SDS011;2751;49.802;9.944;2022-09-13T14:29:30;5.23;;;3.10;;
5456;SDS011;2751;49.802;9.944;2022-09-13T14:32:00;3.33;;;3.10;;
5456;SDS011;2751;49.802;9.944;2022-09-13T14:34:33;3.10;;;2.80;;
5456;SDS011;2751;49.802;9.944;2022-09-13T14:37:03;3.73;;;3.53;;
5456;SDS011;2751;49.802;9.944;2022-09-13T14:39:31;4.10;;;3.80;;
5456;SDS011;2751;49.802;9.944;2022-09-13T14:42:02;3.70;;;3.40;;
5456;SDS011;2751;49.802;9.944;2022-09-13T14:44:37;3.33;;;3.13;;
5456;SDS011;2751;49.802;9.944;2022-09-13T14:47:11;3.90;;;3.53;;
5456;SDS011;2751;49.802;9.944;2022-09-13T14:49:45;3.30;;;3.10;;
5456;SDS011;2751;49.802;9.944;2022-09-13T14:52:16;4.83;;;4.53;;
5456;SDS011;2751;49.802;9.944;2022-09-13T14:54:48;3.80;;;3.50;;
5456;SDS011;2751;49.802;9.944;2022-09-13T14:57:19;2.97;;;2.77;;
5456;SDS011;2751;49.802;9.944;2022-09-13T14:59:50;3.33;;;3.10;;
5456;SDS011;2751;49.802;9.944;2022-09-13T15:02:20;3.63;;;3.23;;
5456;SDS011;2751;49.802;9.944;2022-09-13T15:04:51;3.47;;;3.20;;
5456;SDS011;2751;49.802;9.944;2022-09-13T15:07:21;7.03;;;3.60;;
5456;SDS011;2751;49.802;9.944;2022-09-13T15:09:54;3.77;;;3.37;;
5456;SDS011;2751;49.802;9.944;2022-09-13T15:12:24;7.83;;;3.60;;
5456;SDS011;2751;49.802;9.944;2022-09-13T15:17:51;5.00;;;3.60;;
5456;SDS011;2751;49.802;9.944;2022-09-13T15:20:20;6.20;;;4.03;;
5456;SDS011;2751;49.802;9.944;2022-09-13T15:22:48;4.27;;;2.60;;
5456;SDS011;2751;49.802;9.944;2022-09-13T15:25:18;3.80;;;3.50;;
5456;SDS011;2751;49.802;9.944;2022-09-13T15:27:47;6.23;;;3.50;;
5456;SDS011;2751;49.802;9.944;2022-09-13T15:30:18;9.33;;;4.00;;
5456;SDS011;2751;49.802;9.944;2022-09-13T15:32:48;3.07;;;2.80;;
5456;SDS011;2751;49.802;9.944;2022-09-13T15:35:15;7.20;;;3.00;;
5456;SDS011;2751;49.802;9.944;2022-09-13T15:37:57;4.33;;;2.60;;
5456;SDS011;2751;49.802;9.944;2022-09-13T15:40:24;3.20;;;3.00;;
5456;SDS011;2751;49.802;9.944;2022-09-13T15:42:54;3.30;;;3.00;;
5456;SDS011;2751;49.802;9.944;2022-09-13T15:45:21;3.20;;;2.90;;
5456;SDS011;2751;49.802;9.944;2022-09-13T15:47:49;3.00;;;2.80;;
5456;SDS011;2751;49.802;9.944;2022-09-13T15:50:18;4.37;;;3.57;;
5456;SDS011;2751;49.802;9.944;2022-09-13T15:52:48;3.43;;;3.07;;
5456;SDS011;2751;49.802;9.944;2022-09-13T15:55:15;6.27;;;5.67;;
5456;SDS011;2751;49.802;9.944;2022-09-13T15:57:42;5.83;;;5.13;;
5456;SDS011;2751;49.802;9.944;2022-09-13T16:00:13;3.43;;;3.13;;
5456;SDS011;2751;49.802;9.944;2022-09-13T16:02:41;4.43;;;4.00;;
5456;SDS011;2751;49.802;9.944;2022-09-13T16:05:08;4.00;;;3.37;;
5456;SDS011;2751;49.802;9.944;2022-09-13T16:07:36;6.07;;;3.07;;
5456;SDS011;2751;49.802;9.944;2022-09-13T16:10:08;9.40;;;3.27;;
5456;SDS011;2751;49.802;9.944;2022-09-13T16:12:37;3.57;;;3.20;;
5456;SDS011;2751;49.802;9.944;2022-09-13T16:15:05;4.50;;;3.80;;
5456;SDS011;2751;49.802;9.944;2022-09-13T16:17:32;4.00;;;2.83;;